sensor_id;sensor_type;location;lat;lon;timestamp;temperature;humidity
23395;DHT22;11870;53.084;18.206;2022-07-01T05:18:23;35.40;58.70
23395;DHT22;11870;53.084;18.206;2022-07-01T05:21:08;35.60;57.20
23395;DHT22;11870;53.084;18.206;2022-07-01T05:23:58;35.00;57.30
23395;DHT22;11870;53.084;18.206;2022-07-01T05:26:24;34.90;58.60
23395;DHT22;11870;53.084;18.206;2022-07-01T05:28:54;34.60;58.20
23395;DHT22;11870;53.084;18.206;2022-07-01T05:31:20;34.00;59.70
23395;DHT22;11870;53.084;18.206;2022-07-01T05:33:47;33.60;61.30
23395;DHT22;11870;53.084;18.206;2022-07-01T05:36:13;33.60;61.10
23395;DHT22;11870;53.084;18.206;2022-07-01T05:38:39;33.40;62.60
23395;DHT22;11870;53.084;18.206;2022-07-01T05:41:06;33.30;62.30
23395;DHT22;11870;53.084;18.206;2022-07-01T05:43:32;33.30;62.20
23395;DHT22;11870;53.084;18.206;2022-07-01T05:45:58;33.40;62.80
23395;DHT22;11870;53.084;18.206;2022-07-01T05:48:25;33.70;62.60
23395;DHT22;11870;53.084;18.206;2022-07-01T05:50:51;33.60;62.50
23395;DHT22;11870;53.084;18.206;2022-07-01T05:53:18;34.00;60.90
23395;DHT22;11870;53.084;18.206;2022-07-01T05:55:44;34.90;58.90
23395;DHT22;11870;53.084;18.206;2022-07-01T05:58:11;35.90;58.40
23395;DHT22;11870;53.084;18.206;2022-07-01T06:00:38;36.40;55.10
23395;DHT22;11870;53.084;18.206;2022-07-01T06:03:11;37.60;53.90
23395;DHT22;11870;53.084;18.206;2022-07-01T06:05:37;38.70;51.60
23395;DHT22;11870;53.084;18.206;2022-07-01T06:08:04;38.60;50.50
23395;DHT22;11870;53.084;18.206;2022-07-01T06:10:30;38.50;50.90
23395;DHT22;11870;53.084;18.206;2022-07-01T06:12:56;38.50;50.20
23395;DHT22;11870;53.084;18.206;2022-07-01T06:15:22;38.60;49.80
23395;DHT22;11870;53.084;18.206;2022-07-01T06:17:48;38.00;50.80
23395;DHT22;11870;53.084;18.206;2022-07-01T06:20:15;37.70;51.10
23395;DHT22;11870;53.084;18.206;2022-07-01T06:22:41;37.60;51.60
23395;DHT22;11870;53.084;18.206;2022-07-01T06:25:07;38.00;50.90
23395;DHT22;11870;53.084;18.206;2022-07-01T06:27:40;37.60;51.20
23395;DHT22;11870;53.084;18.206;2022-07-01T06:30:07;37.00;52.00
23395;DHT22;11870;53.084;18.206;2022-07-01T06:32:34;36.60;53.10
23395;DHT22;11870;53.084;18.206;2022-07-01T06:35:00;36.40;53.50
23395;DHT22;11870;53.084;18.206;2022-07-01T06:37:26;36.20;53.70
23395;DHT22;11870;53.084;18.206;2022-07-01T06:39:52;35.20;55.30
23395;DHT22;11870;53.084;18.206;2022-07-01T06:42:18;35.10;56.00
23395;DHT22;11870;53.084;18.206;2022-07-01T06:44:44;34.70;57.10
23395;DHT22;11870;53.084;18.206;2022-07-01T06:47:10;34.20;57.40
23395;DHT22;11870;53.084;18.206;2022-07-01T06:49:36;33.90;59.20
23395;DHT22;11870;53.084;18.206;2022-07-01T06:52:03;34.10;59.90
23395;DHT22;11870;53.084;18.206;2022-07-01T06:54:29;34.50;58.30
23395;DHT22;11870;53.084;18.206;2022-07-01T06:56:55;34.50;57.90
23395;DHT22;11870;53.084;18.206;2022-07-01T06:59:21;34.50;57.60
23395;DHT22;11870;53.084;18.206;2022-07-01T07:01:47;34.30;58.10
23395;DHT22;11870;53.084;18.206;2022-07-01T07:04:15;34.20;58.80
23395;DHT22;11870;53.084;18.206;2022-07-01T07:06:42;33.80;59.50
23395;DHT22;11870;53.084;18.206;2022-07-01T07:09:08;33.80;59.80
23395;DHT22;11870;53.084;18.206;2022-07-01T07:11:34;33.80;60.70
23395;DHT22;11870;53.084;18.206;2022-07-01T07:14:00;34.00;59.50
23395;DHT22;11870;53.084;18.206;2022-07-01T07:16:26;34.00;59.90
23395;DHT22;11870;53.084;18.206;2022-07-01T07:18:52;34.80;58.70
23395;DHT22;11870;53.084;18.206;2022-07-01T07:21:18;36.20;56.80
23395;DHT22;11870;53.084;18.206;2022-07-01T07:23:44;37.20;54.10
23395;DHT22;11870;53.084;18.206;2022-07-01T07:26:10;37.30;53.50
23395;DHT22;11870;53.084;18.206;2022-07-01T07:28:36;36.70;53.80
23395;DHT22;11870;53.084;18.206;2022-07-01T07:31:03;36.80;55.00
23395;DHT22;11870;53.084;18.206;2022-07-01T07:33:29;36.70;54.30
23395;DHT22;11870;53.084;18.206;2022-07-01T07:35:55;36.70;55.00
23395;DHT22;11870;53.084;18.206;2022-07-01T07:38:21;37.60;53.60
23395;DHT22;11870;53.084;18.206;2022-07-01T07:40:47;38.50;51.70
23395;DHT22;11870;53.084;18.206;2022-07-01T07:43:13;39.50;49.80
23395;DHT22;11870;53.084;18.206;2022-07-01T07:45:39;40.20;47.80
23395;DHT22;11870;53.084;18.206;2022-07-01T07:48:05;41.50;46.30
23395;DHT22;11870;53.084;18.206;2022-07-01T07:50:32;41.90;45.30
23395;DHT22;11870;53.084;18.206;2022-07-01T07:52:58;41.90;44.80
23395;DHT22;11870;53.084;18.206;2022-07-01T07:55:24;42.80;43.40
23395;DHT22;11870;53.084;18.206;2022-07-01T07:57:50;42.20;44.10
23395;DHT22;11870;53.084;18.206;2022-07-01T08:00:16;42.30;43.70
23395;DHT22;11870;53.084;18.206;2022-07-01T08:02:43;43.00;42.80
23395;DHT22;11870;53.084;18.206;2022-07-01T08:05:10;43.60;41.90
23395;DHT22;11870;53.084;18.206;2022-07-01T08:07:41;44.20;41.80
23395;DHT22;11870;53.084;18.206;2022-07-01T08:10:10;45.30;40.60
23395;DHT22;11870;53.084;18.206;2022-07-01T08:12:36;45.60;39.40
23395;DHT22;11870;53.084;18.206;2022-07-01T08:15:03;45.90;38.10
23395;DHT22;11870;53.084;18.206;2022-07-01T08:17:30;45.50;38.70
23395;DHT22;11870;53.084;18.206;2022-07-01T08:19:56;46.00;37.90
23395;DHT22;11870;53.084;18.206;2022-07-01T08:22:22;46.20;37.60
23395;DHT22;11870;53.084;18.206;2022-07-01T08:24:48;46.20;37.50
23395;DHT22;11870;53.084;18.206;2022-07-01T08:27:14;46.10;37.50
23395;DHT22;11870;53.084;18.206;2022-07-01T08:29:40;46.70;37.30
23395;DHT22;11870;53.084;18.206;2022-07-01T08:32:07;47.80;36.20
23395;DHT22;11870;53.084;18.206;2022-07-01T08:34:33;48.70;35.00
23395;DHT22;11870;53.084;18.206;2022-07-01T08:36:59;49.70;34.10
23395;DHT22;11870;53.084;18.206;2022-07-01T08:39:25;50.50;33.00
23395;DHT22;11870;53.084;18.206;2022-07-01T08:41:50;50.90;32.00
23395;DHT22;11870;53.084;18.206;2022-07-01T08:44:17;51.00;32.00
23395;DHT22;11870;53.084;18.206;2022-07-01T08:46:42;51.20;31.40
23395;DHT22;11870;53.084;18.206;2022-07-01T08:49:08;51.30;31.20
23395;DHT22;11870;53.084;18.206;2022-07-01T08:51:34;51.50;30.40
23395;DHT22;11870;53.084;18.206;2022-07-01T08:54:00;51.20;30.70
23395;DHT22;11870;53.084;18.206;2022-07-01T08:56:26;51.40;29.90
23395;DHT22;11870;53.084;18.206;2022-07-01T08:59:12;50.50;30.20
23395;DHT22;11870;53.084;18.206;2022-07-01T09:01:39;49.40;30.80
23395;DHT22;11870;53.084;18.206;2022-07-01T09:04:14;48.50;31.90
23395;DHT22;11870;53.084;18.206;2022-07-01T09:06:41;48.00;32.40
23395;DHT22;11870;53.084;18.206;2022-07-01T09:11:46;48.20;33.00
23395;DHT22;11870;53.084;18.206;2022-07-01T09:14:14;48.50;32.90
23395;DHT22;11870;53.084;18.206;2022-07-01T09:19:07;48.00;33.00
23395;DHT22;11870;53.084;18.206;2022-07-01T09:21:34;48.50;32.60
23395;DHT22;11870;53.084;18.206;2022-07-01T09:24:05;48.70;32.90
23395;DHT22;11870;53.084;18.206;2022-07-01T09:26:31;48.70;32.00
23395;DHT22;11870;53.084;18.206;2022-07-01T09:28:58;49.20;31.90
23395;DHT22;11870;53.084;18.206;2022-07-01T09:31:33;48.40;32.90
23395;DHT22;11870;53.084;18.206;2022-07-01T09:34:07;46.90;33.10
23395;DHT22;11870;53.084;18.206;2022-07-01T09:36:40;46.90;34.70
23395;DHT22;11870;53.084;18.206;2022-07-01T09:39:06;48.00;33.50
23395;DHT22;11870;53.084;18.206;2022-07-01T09:41:39;47.50;33.70
23395;DHT22;11870;53.084;18.206;2022-07-01T09:44:08;47.60;34.80
23395;DHT22;11870;53.084;18.206;2022-07-01T09:46:35;47.50;35.30
23395;DHT22;11870;53.084;18.206;2022-07-01T09:49:01;47.90;34.70
23395;DHT22;11870;53.084;18.206;2022-07-01T09:51:28;48.40;34.10
23395;DHT22;11870;53.084;18.206;2022-07-01T09:53:55;47.90;34.10
23395;DHT22;11870;53.084;18.206;2022-07-01T09:56:24;47.00;34.70
23395;DHT22;11870;53.084;18.206;2022-07-01T09:58:50;47.00;36.60
23395;DHT22;11870;53.084;18.206;2022-07-01T10:01:17;47.30;35.40
23395;DHT22;11870;53.084;18.206;2022-07-01T10:03:43;47.70;35.30
23395;DHT22;11870;53.084;18.206;2022-07-01T10:06:17;47.90;33.00
23395;DHT22;11870;53.084;18.206;2022-07-01T10:13:52;46.50;34.00
23395;DHT22;11870;53.084;18.206;2022-07-01T10:16:19;44.80;37.00
23395;DHT22;11870;53.084;18.206;2022-07-01T10:18:46;44.40;37.60
23395;DHT22;11870;53.084;18.206;2022-07-01T10:21:29;44.30;38.50
23395;DHT22;11870;53.084;18.206;2022-07-01T10:24:16;44.40;38.90
23395;DHT22;11870;53.084;18.206;2022-07-01T10:26:43;44.30;37.20
23395;DHT22;11870;53.084;18.206;2022-07-01T10:29:36;43.20;39.60
23395;DHT22;11870;53.084;18.206;2022-07-01T10:34:46;40.00;43.30
23395;DHT22;11870;53.084;18.206;2022-07-01T10:37:13;39.20;44.80
23395;DHT22;11870;53.084;18.206;2022-07-01T10:39:59;38.10;44.80
23395;DHT22;11870;53.084;18.206;2022-07-01T10:42:30;37.50;47.60
